sensor_id;sensor_type;location;lat;lon;timestamp;temperature;humidity
1359;DHT22;673;48.098;14.422;2024-02-23T00:01:05;5.90;99.90
1359;DHT22;673;48.098;14.422;2024-02-23T00:03:32;5.90;99.90
1359;DHT22;673;48.098;14.422;2024-02-23T00:06:00;5.80;99.90
1359;DHT22;673;48.098;14.422;2024-02-23T00:08:27;6.00;99.90
1359;DHT22;673;48.098;14.422;2024-02-23T00:10:55;6.10;99.90
1359;DHT22;673;48.098;14.422;2024-02-23T00:13:22;6.00;99.90
1359;DHT22;673;48.098;14.422;2024-02-23T00:15:49;5.90;99.90
1359;DHT22;673;48.098;14.422;2024-02-23T00:18:17;5.80;99.90
1359;DHT22;673;48.098;14.422;2024-02-23T00:20:44;5.90;99.90
1359;DHT22;673;48.098;14.422;2024-02-23T00:23:11;6.00;99.90
1359;DHT22;673;48.098;14.422;2024-02-23T00:25:38;6.00;99.90
1359;DHT22;673;48.098;14.422;2024-02-23T00:28:06;6.00;99.90
1359;DHT22;673;48.098;14.422;2024-02-23T00:30:34;6.00;99.90
1359;DHT22;673;48.098;14.422;2024-02-23T00:33:01;6.00;99.90
1359;DHT22;673;48.098;14.422;2024-02-23T00:35:28;6.00;99.90
1359;DHT22;673;48.098;14.422;2024-02-23T00:37:55;6.00;99.90
1359;DHT22;673;48.098;14.422;2024-02-23T00:40:22;5.90;99.90
1359;DHT22;673;48.098;14.422;2024-02-23T00:42:49;5.80;99.90
1359;DHT22;673;48.098;14.422;2024-02-23T00:45:20;5.80;99.90
1359;DHT22;673;48.098;14.422;2024-02-23T00:47:48;5.80;99.90
1359;DHT22;673;48.098;14.422;2024-02-23T00:50:15;5.80;99.90
1359;DHT22;673;48.098;14.422;2024-02-23T00:52:42;5.80;99.90
1359;DHT22;673;48.098;14.422;2024-02-23T00:55:09;5.80;99.90
1359;DHT22;673;48.098;14.422;2024-02-23T00:57:36;5.80;99.90
1359;DHT22;673;48.098;14.422;2024-02-23T01:00:04;5.80;99.90
1359;DHT22;673;48.098;14.422;2024-02-23T01:02:33;5.90;99.90
1359;DHT22;673;48.098;14.422;2024-02-23T01:05:00;5.90;99.90
1359;DHT22;673;48.098;14.422;2024-02-23T01:07:28;5.90;99.90
1359;DHT22;673;48.098;14.422;2024-02-23T01:09:55;5.90;99.90
1359;DHT22;673;48.098;14.422;2024-02-23T01:12:22;5.80;99.90
1359;DHT22;673;48.098;14.422;2024-02-23T01:14:49;5.90;99.90
1359;DHT22;673;48.098;14.422;2024-02-23T01:17:16;5.90;99.90
1359;DHT22;673;48.098;14.422;2024-02-23T01:19:44;5.90;99.90
1359;DHT22;673;48.098;14.422;2024-02-23T01:22:11;6.00;99.90
1359;DHT22;673;48.098;14.422;2024-02-23T01:24:40;6.10;99.90
1359;DHT22;673;48.098;14.422;2024-02-23T01:27:07;6.20;99.90
1359;DHT22;673;48.098;14.422;2024-02-23T01:29:34;6.20;99.90
1359;DHT22;673;48.098;14.422;2024-02-23T01:32:01;6.30;99.90
1359;DHT22;673;48.098;14.422;2024-02-23T01:34:29;6.20;99.90
1359;DHT22;673;48.098;14.422;2024-02-23T01:36:57;6.20;99.90
1359;DHT22;673;48.098;14.422;2024-02-23T01:39:24;6.20;99.90
1359;DHT22;673;48.098;14.422;2024-02-23T01:41:51;6.30;99.90
1359;DHT22;673;48.098;14.422;2024-02-23T01:44:20;6.40;99.90
1359;DHT22;673;48.098;14.422;2024-02-23T01:46:47;6.40;99.90
1359;DHT22;673;48.098;14.422;2024-02-23T01:49:14;6.30;99.90
1359;DHT22;673;48.098;14.422;2024-02-23T01:51:41;6.30;99.90
1359;DHT22;673;48.098;14.422;2024-02-23T01:54:10;6.30;99.90
1359;DHT22;673;48.098;14.422;2024-02-23T01:56:38;6.40;99.90
1359;DHT22;673;48.098;14.422;2024-02-23T01:59:06;6.40;99.90
1359;DHT22;673;48.098;14.422;2024-02-23T02:01:34;6.50;99.90
1359;DHT22;673;48.098;14.422;2024-02-23T02:04:01;6.40;99.90
1359;DHT22;673;48.098;14.422;2024-02-23T02:06:28;6.50;99.90
1359;DHT22;673;48.098;14.422;2024-02-23T02:08:55;6.40;99.90
1359;DHT22;673;48.098;14.422;2024-02-23T02:11:23;6.40;99.90
1359;DHT22;673;48.098;14.422;2024-02-23T02:13:50;6.30;99.90
1359;DHT22;673;48.098;14.422;2024-02-23T02:16:17;6.20;99.90
1359;DHT22;673;48.098;14.422;2024-02-23T02:18:44;6.20;99.90
1359;DHT22;673;48.098;14.422;2024-02-23T02:21:11;6.30;99.90
1359;DHT22;673;48.098;14.422;2024-02-23T02:23:38;6.30;99.90
1359;DHT22;673;48.098;14.422;2024-02-23T02:26:06;6.40;99.90
1359;DHT22;673;48.098;14.422;2024-02-23T02:28:34;6.40;99.90
1359;DHT22;673;48.098;14.422;2024-02-23T02:31:01;6.40;99.90
1359;DHT22;673;48.098;14.422;2024-02-23T02:33:28;6.40;99.90
1359;DHT22;673;48.098;14.422;2024-02-23T02:35:56;6.40;99.90
1359;DHT22;673;48.098;14.422;2024-02-23T02:38:22;6.50;99.90
1359;DHT22;673;48.098;14.422;2024-02-23T02:40:49;6.50;99.90
1359;DHT22;673;48.098;14.422;2024-02-23T02:43:16;6.50;99.90
1359;DHT22;673;48.098;14.422;2024-02-23T02:45:45;6.40;99.90
1359;DHT22;673;48.098;14.422;2024-02-23T02:48:12;6.50;99.90
1359;DHT22;673;48.098;14.422;2024-02-23T02:50:39;6.40;99.90
1359;DHT22;673;48.098;14.422;2024-02-23T02:53:05;6.40;99.90
1359;DHT22;673;48.098;14.422;2024-02-23T02:55:32;6.40;99.90
1359;DHT22;673;48.098;14.422;2024-02-23T02:57:59;6.40;99.90
1359;DHT22;673;48.098;14.422;2024-02-23T03:00:27;6.40;99.90
1359;DHT22;673;48.098;14.422;2024-02-23T03:02:55;6.40;99.90
1359;DHT22;673;48.098;14.422;2024-02-23T03:05:22;6.40;99.90
1359;DHT22;673;48.098;14.422;2024-02-23T03:07:51;6.40;99.90
1359;DHT22;673;48.098;14.422;2024-02-23T03:10:18;6.40;99.90
1359;DHT22;673;48.098;14.422;2024-02-23T03:12:45;6.40;99.90
1359;DHT22;673;48.098;14.422;2024-02-23T03:15:13;6.40;99.90
1359;DHT22;673;48.098;14.422;2024-02-23T03:17:40;6.40;99.90
1359;DHT22;673;48.098;14.422;2024-02-23T03:20:10;6.40;99.90
1359;DHT22;673;48.098;14.422;2024-02-23T03:22:37;6.40;99.90
1359;DHT22;673;48.098;14.422;2024-02-23T03:25:05;6.40;99.90
1359;DHT22;673;48.098;14.422;2024-02-23T03:27:36;6.40;99.90
1359;DHT22;673;48.098;14.422;2024-02-23T03:30:04;6.40;99.90
1359;DHT22;673;48.098;14.422;2024-02-23T03:32:34;6.50;99.90
1359;DHT22;673;48.098;14.422;2024-02-23T03:35:04;6.50;99.90
1359;DHT22;673;48.098;14.422;2024-02-23T03:37:33;6.50;99.90
1359;DHT22;673;48.098;14.422;2024-02-23T03:40:00;6.50;99.90
1359;DHT22;673;48.098;14.422;2024-02-23T03:42:27;6.60;99.90
1359;DHT22;673;48.098;14.422;2024-02-23T03:44:54;6.60;99.90
1359;DHT22;673;48.098;14.422;2024-02-23T03:47:21;6.60;99.90
1359;DHT22;673;48.098;14.422;2024-02-23T03:49:48;6.60;99.90
1359;DHT22;673;48.098;14.422;2024-02-23T03:52:15;6.60;99.90
1359;DHT22;673;48.098;14.422;2024-02-23T03:54:44;6.60;99.90
1359;DHT22;673;48.098;14.422;2024-02-23T03:57:11;6.70;99.90
1359;DHT22;673;48.098;14.422;2024-02-23T03:59:38;6.80;99.90
1359;DHT22;673;48.098;14.422;2024-02-23T04:02:06;6.80;99.90
1359;DHT22;673;48.098;14.422;2024-02-23T04:04:34;6.90;99.90
1359;DHT22;673;48.098;14.422;2024-02-23T04:07:01;7.00;99.90
1359;DHT22;673;48.098;14.422;2024-02-23T04:09:28;7.10;99.90
1359;DHT22;673;48.098;14.422;2024-02-23T04:11:56;7.20;99.90
1359;DHT22;673;48.098;14.422;2024-02-23T04:14:23;7.20;99.90
1359;DHT22;673;48.098;14.422;2024-02-23T04:16:50;7.20;99.90
1359;DHT22;673;48.098;14.422;2024-02-23T04:19:17;7.20;99.90
1359;DHT22;673;48.098;14.422;2024-02-23T04:21:44;7.20;99.90
1359;DHT22;673;48.098;14.422;2024-02-23T04:24:11;7.10;99.90
1359;DHT22;673;48.098;14.422;2024-02-23T04:26:40;7.10;99.90
1359;DHT22;673;48.098;14.422;2024-02-23T04:29:08;7.10;99.90
1359;DHT22;673;48.098;14.422;2024-02-23T04:31:36;7.10;99.90
1359;DHT22;673;48.098;14.422;2024-02-23T04:34:03;7.00;99.90
1359;DHT22;673;48.098;14.422;2024-02-23T04:36:30;7.00;99.90
1359;DHT22;673;48.098;14.422;2024-02-23T04:38:57;7.00;99.90
1359;DHT22;673;48.098;14.422;2024-02-23T04:41:24;6.90;99.90
1359;DHT22;673;48.098;14.422;2024-02-23T04:43:51;7.00;99.90
1359;DHT22;673;48.098;14.422;2024-02-23T04:46:25;6.90;99.90
1359;DHT22;673;48.098;14.422;2024-02-23T04:48:52;6.90;99.90
1359;DHT22;673;48.098;14.422;2024-02-23T04:51:19;6.90;99.90
1359;DHT22;673;48.098;14.422;2024-02-23T04:53:48;6.90;99.90
1359;DHT22;673;48.098;14.422;2024-02-23T04:56:15;6.80;99.90
1359;DHT22;673;48.098;14.422;2024-02-23T04:58:42;6.80;99.90
1359;DHT22;673;48.098;14.422;2024-02-23T05:01:09;6.80;99.90
1359;DHT22;673;48.098;14.422;2024-02-23T05:03:38;6.80;99.90
1359;DHT22;673;48.098;14.422;2024-02-23T05:06:06;6.90;99.90
1359;DHT22;673;48.098;14.422;2024-02-23T05:08:33;6.90;99.90
1359;DHT22;673;48.098;14.422;2024-02-23T05:11:00;6.90;99.90
1359;DHT22;673;48.098;14.422;2024-02-23T05:13:27;6.90;99.90
1359;DHT22;673;48.098;14.422;2024-02-23T05:15:55;6.90;99.90
1359;DHT22;673;48.098;14.422;2024-02-23T05:18:22;7.00;99.90
1359;DHT22;673;48.098;14.422;2024-02-23T05:20:51;6.90;99.90
1359;DHT22;673;48.098;14.422;2024-02-23T05:23:18;7.00;99.90
1359;DHT22;673;48.098;14.422;2024-02-23T05:25:45;6.90;99.90
1359;DHT22;673;48.098;14.422;2024-02-23T05:28:12;6.90;99.90
1359;DHT22;673;48.098;14.422;2024-02-23T05:30:38;6.80;99.90
1359;DHT22;673;48.098;14.422;2024-02-23T05:33:05;6.70;99.90
1359;DHT22;673;48.098;14.422;2024-02-23T05:35:32;6.70;99.90
1359;DHT22;673;48.098;14.422;2024-02-23T05:38:01;6.60;99.90
1359;DHT22;673;48.098;14.422;2024-02-23T05:40:28;6.60;99.90
1359;DHT22;673;48.098;14.422;2024-02-23T05:42:55;6.60;99.90
1359;DHT22;673;48.098;14.422;2024-02-23T05:45:22;6.70;99.90
1359;DHT22;673;48.098;14.422;2024-02-23T05:47:49;6.70;99.90
1359;DHT22;673;48.098;14.422;2024-02-23T05:50:16;6.60;99.90
1359;DHT22;673;48.098;14.422;2024-02-23T05:52:43;6.50;99.90
1359;DHT22;673;48.098;14.422;2024-02-23T05:55:11;6.50;99.90
1359;DHT22;673;48.098;14.422;2024-02-23T05:57:38;6.60;99.90
1359;DHT22;673;48.098;14.422;2024-02-23T06:00:06;6.60;99.90
1359;DHT22;673;48.098;14.422;2024-02-23T06:02:34;6.60;99.90
1359;DHT22;673;48.098;14.422;2024-02-23T06:05:01;6.60;99.90
1359;DHT22;673;48.098;14.422;2024-02-23T06:07:29;6.60;99.90
1359;DHT22;673;48.098;14.422;2024-02-23T06:09:56;6.70;99.90
1359;DHT22;673;48.098;14.422;2024-02-23T06:12:24;6.80;99.90
1359;DHT22;673;48.098;14.422;2024-02-23T06:14:52;6.80;99.90
1359;DHT22;673;48.098;14.422;2024-02-23T06:17:21;6.80;99.90
1359;DHT22;673;48.098;14.422;2024-02-23T06:19:48;6.80;99.90
1359;DHT22;673;48.098;14.422;2024-02-23T06:22:18;6.80;99.90
1359;DHT22;673;48.098;14.422;2024-02-23T06:24:46;6.80;99.90
1359;DHT22;673;48.098;14.422;2024-02-23T06:27:13;6.80;99.90
1359;DHT22;673;48.098;14.422;2024-02-23T06:29:42;6.80;99.90
1359;DHT22;673;48.098;14.422;2024-02-23T06:32:09;6.80;99.90
1359;DHT22;673;48.098;14.422;2024-02-23T06:34:36;6.80;99.90
1359;DHT22;673;48.098;14.422;2024-02-23T06:37:03;6.80;99.90
1359;DHT22;673;48.098;14.422;2024-02-23T06:39:30;6.70;99.90
1359;DHT22;673;48.098;14.422;2024-02-23T06:41:57;6.70;99.90
1359;DHT22;673;48.098;14.422;2024-02-23T06:44:26;6.70;99.90
1359;DHT22;673;48.098;14.422;2024-02-23T06:46:54;6.70;99.90
1359;DHT22;673;48.098;14.422;2024-02-23T06:49:21;6.70;99.90
1359;DHT22;673;48.098;14.422;2024-02-23T06:51:48;6.70;99.90
1359;DHT22;673;48.098;14.422;2024-02-23T06:54:15;6.50;99.90
1359;DHT22;673;48.098;14.422;2024-02-23T06:56:43;6.10;99.90
1359;DHT22;673;48.098;14.422;2024-02-23T06:59:11;5.90;99.90
1359;DHT22;673;48.098;14.422;2024-02-23T07:01:48;5.80;99.90
1359;DHT22;673;48.098;14.422;2024-02-23T07:04:16;5.70;99.90
1359;DHT22;673;48.098;14.422;2024-02-23T07:06:43;5.60;99.90
1359;DHT22;673;48.098;14.422;2024-02-23T07:09:10;5.60;99.90
1359;DHT22;673;48.098;14.422;2024-02-23T07:11:38;5.60;99.90
1359;DHT22;673;48.098;14.422;2024-02-23T07:14:07;5.60;99.90
1359;DHT22;673;48.098;14.422;2024-02-23T07:16:37;5.60;99.90
1359;DHT22;673;48.098;14.422;2024-02-23T07:19:05;5.50;99.90
1359;DHT22;673;48.098;14.422;2024-02-23T07:21:33;5.50;99.90
1359;DHT22;673;48.098;14.422;2024-02-23T07:24:00;5.40;99.90
1359;DHT22;673;48.098;14.422;2024-02-23T07:26:27;5.40;99.90
1359;DHT22;673;48.098;14.422;2024-02-23T07:28:55;5.40;99.90
1359;DHT22;673;48.098;14.422;2024-02-23T07:31:22;5.40;99.90
1359;DHT22;673;48.098;14.422;2024-02-23T07:33:49;5.40;99.90
1359;DHT22;673;48.098;14.422;2024-02-23T07:36:16;5.40;99.90
1359;DHT22;673;48.098;14.422;2024-02-23T07:38:45;5.40;99.90
1359;DHT22;673;48.098;14.422;2024-02-23T07:41:12;5.50;99.90
1359;DHT22;673;48.098;14.422;2024-02-23T07:43:39;5.50;99.90
1359;DHT22;673;48.098;14.422;2024-02-23T07:46:07;5.50;99.90
1359;DHT22;673;48.098;14.422;2024-02-23T07:48:34;5.50;99.90
1359;DHT22;673;48.098;14.422;2024-02-23T07:51:02;5.60;99.90
1359;DHT22;673;48.098;14.422;2024-02-23T07:53:29;5.60;99.90
1359;DHT22;673;48.098;14.422;2024-02-23T07:55:59;5.60;99.90
1359;DHT22;673;48.098;14.422;2024-02-23T07:58:28;5.70;99.90
1359;DHT22;673;48.098;14.422;2024-02-23T08:00:55;5.70;99.90
1359;DHT22;673;48.098;14.422;2024-02-23T08:03:22;5.70;99.90
1359;DHT22;673;48.098;14.422;2024-02-23T08:05:49;5.80;99.90
1359;DHT22;673;48.098;14.422;2024-02-23T08:08:16;5.80;99.90
1359;DHT22;673;48.098;14.422;2024-02-23T08:10:44;5.80;99.90
1359;DHT22;673;48.098;14.422;2024-02-23T08:13:12;5.80;99.90
1359;DHT22;673;48.098;14.422;2024-02-23T08:15:39;5.80;99.90
1359;DHT22;673;48.098;14.422;2024-02-23T08:18:06;5.80;99.90
1359;DHT22;673;48.098;14.422;2024-02-23T08:20:33;5.90;99.90
1359;DHT22;673;48.098;14.422;2024-02-23T08:23:00;6.00;99.90
1359;DHT22;673;48.098;14.422;2024-02-23T08:25:27;6.00;99.90
1359;DHT22;673;48.098;14.422;2024-02-23T08:27:55;5.90;99.90
1359;DHT22;673;48.098;14.422;2024-02-23T08:30:23;6.00;99.90
1359;DHT22;673;48.098;14.422;2024-02-23T08:32:50;6.00;99.90
1359;DHT22;673;48.098;14.422;2024-02-23T08:35:17;6.00;99.90
1359;DHT22;673;48.098;14.422;2024-02-23T08:37:44;6.10;99.90
1359;DHT22;673;48.098;14.422;2024-02-23T08:40:12;6.30;99.90
1359;DHT22;673;48.098;14.422;2024-02-23T08:42:39;6.40;99.90
1359;DHT22;673;48.098;14.422;2024-02-23T08:45:06;6.40;99.90
1359;DHT22;673;48.098;14.422;2024-02-23T08:47:36;6.50;99.90
1359;DHT22;673;48.098;14.422;2024-02-23T08:50:04;6.50;99.90
1359;DHT22;673;48.098;14.422;2024-02-23T08:52:31;6.50;99.90
1359;DHT22;673;48.098;14.422;2024-02-23T08:54:58;6.50;99.90
1359;DHT22;673;48.098;14.422;2024-02-23T08:57:26;6.60;99.90
1359;DHT22;673;48.098;14.422;2024-02-23T08:59:53;6.60;99.90
1359;DHT22;673;48.098;14.422;2024-02-23T09:02:23;6.60;99.90
1359;DHT22;673;48.098;14.422;2024-02-23T09:04:51;6.50;99.90
1359;DHT22;673;48.098;14.422;2024-02-23T09:07:18;6.50;99.90
1359;DHT22;673;48.098;14.422;2024-02-23T09:09:46;6.60;99.90
1359;DHT22;673;48.098;14.422;2024-02-23T09:12:14;6.60;99.90
1359;DHT22;673;48.098;14.422;2024-02-23T09:14:41;6.60;99.90
1359;DHT22;673;48.098;14.422;2024-02-23T09:17:09;6.70;99.90
1359;DHT22;673;48.098;14.422;2024-02-23T09:19:36;6.70;99.90
1359;DHT22;673;48.098;14.422;2024-02-23T09:22:05;6.60;99.90
1359;DHT22;673;48.098;14.422;2024-02-23T09:24:32;6.70;99.90
1359;DHT22;673;48.098;14.422;2024-02-23T09:26:59;6.60;99.90
1359;DHT22;673;48.098;14.422;2024-02-23T09:29:27;6.60;99.90
1359;DHT22;673;48.098;14.422;2024-02-23T09:31:54;6.60;99.90
1359;DHT22;673;48.098;14.422;2024-02-23T09:34:21;6.60;99.90
1359;DHT22;673;48.098;14.422;2024-02-23T09:36:48;6.80;99.90
1359;DHT22;673;48.098;14.422;2024-02-23T09:39:16;7.00;99.90
1359;DHT22;673;48.098;14.422;2024-02-23T09:41:43;6.80;99.90
1359;DHT22;673;48.098;14.422;2024-02-23T09:44:10;6.80;99.90
1359;DHT22;673;48.098;14.422;2024-02-23T09:46:40;6.90;99.90
1359;DHT22;673;48.098;14.422;2024-02-23T09:49:11;7.10;99.90
1359;DHT22;673;48.098;14.422;2024-02-23T09:51:39;7.10;99.90
1359;DHT22;673;48.098;14.422;2024-02-23T09:54:09;7.40;99.90
1359;DHT22;673;48.098;14.422;2024-02-23T09:56:38;7.50;99.90
1359;DHT22;673;48.098;14.422;2024-02-23T09:59:06;7.60;99.90
1359;DHT22;673;48.098;14.422;2024-02-23T10:01:33;7.60;99.90
1359;DHT22;673;48.098;14.422;2024-02-23T10:04:01;7.60;99.90
1359;DHT22;673;48.098;14.422;2024-02-23T10:06:30;7.60;99.90
1359;DHT22;673;48.098;14.422;2024-02-23T10:08:57;7.50;99.90
1359;DHT22;673;48.098;14.422;2024-02-23T10:11:24;7.50;99.90
1359;DHT22;673;48.098;14.422;2024-02-23T10:13:53;7.50;99.90
1359;DHT22;673;48.098;14.422;2024-02-23T10:16:21;7.70;99.90
1359;DHT22;673;48.098;14.422;2024-02-23T10:18:49;7.60;99.90
1359;DHT22;673;48.098;14.422;2024-02-23T10:21:16;7.70;99.90
1359;DHT22;673;48.098;14.422;2024-02-23T10:23:44;7.80;99.90
1359;DHT22;673;48.098;14.422;2024-02-23T10:26:11;8.00;99.90
1359;DHT22;673;48.098;14.422;2024-02-23T10:28:38;7.80;99.90
1359;DHT22;673;48.098;14.422;2024-02-23T10:31:07;7.80;99.90
1359;DHT22;673;48.098;14.422;2024-02-23T10:33:34;7.70;99.90
1359;DHT22;673;48.098;14.422;2024-02-23T10:36:03;7.90;99.90
1359;DHT22;673;48.098;14.422;2024-02-23T10:38:32;8.00;99.90
1359;DHT22;673;48.098;14.422;2024-02-23T10:41:02;8.00;99.90
1359;DHT22;673;48.098;14.422;2024-02-23T10:43:36;7.90;99.90
1359;DHT22;673;48.098;14.422;2024-02-23T10:46:07;7.80;99.90
1359;DHT22;673;48.098;14.422;2024-02-23T10:48:39;7.80;99.90
1359;DHT22;673;48.098;14.422;2024-02-23T10:51:07;7.90;99.90
1359;DHT22;673;48.098;14.422;2024-02-23T10:53:34;8.00;99.90
1359;DHT22;673;48.098;14.422;2024-02-23T10:56:03;8.00;99.90
1359;DHT22;673;48.098;14.422;2024-02-23T10:58:31;8.10;99.90
1359;DHT22;673;48.098;14.422;2024-02-23T11:01:00;8.30;99.90
1359;DHT22;673;48.098;14.422;2024-02-23T11:03:30;8.30;99.90
1359;DHT22;673;48.098;14.422;2024-02-23T11:05:59;8.10;99.90
1359;DHT22;673;48.098;14.422;2024-02-23T11:08:28;8.10;99.90
1359;DHT22;673;48.098;14.422;2024-02-23T11:10:55;8.00;99.90
1359;DHT22;673;48.098;14.422;2024-02-23T11:13:30;8.00;99.90
1359;DHT22;673;48.098;14.422;2024-02-23T11:16:01;7.60;99.90
1359;DHT22;673;48.098;14.422;2024-02-23T11:18:30;7.70;99.90
1359;DHT22;673;48.098;14.422;2024-02-23T11:21:00;7.70;99.90
1359;DHT22;673;48.098;14.422;2024-02-23T11:23:27;7.80;99.90
1359;DHT22;673;48.098;14.422;2024-02-23T11:26:05;7.80;99.90
1359;DHT22;673;48.098;14.422;2024-02-23T11:28:41;7.70;99.90
1359;DHT22;673;48.098;14.422;2024-02-23T11:31:12;7.70;99.90
1359;DHT22;673;48.098;14.422;2024-02-23T11:33:40;7.80;99.90
1359;DHT22;673;48.098;14.422;2024-02-23T11:36:22;7.70;99.90
1359;DHT22;673;48.098;14.422;2024-02-23T11:38:52;7.80;99.90
1359;DHT22;673;48.098;14.422;2024-02-23T11:41:20;7.70;99.90
1359;DHT22;673;48.098;14.422;2024-02-23T11:43:47;7.60;99.90
1359;DHT22;673;48.098;14.422;2024-02-23T11:46:15;7.40;99.90
1359;DHT22;673;48.098;14.422;2024-02-23T11:48:43;7.20;99.90
1359;DHT22;673;48.098;14.422;2024-02-23T11:51:12;7.00;99.90
1359;DHT22;673;48.098;14.422;2024-02-23T11:53:39;6.90;99.90
1359;DHT22;673;48.098;14.422;2024-02-23T11:56:06;7.00;99.90
1359;DHT22;673;48.098;14.422;2024-02-23T11:58:34;6.80;99.90
1359;DHT22;673;48.098;14.422;2024-02-23T12:01:01;6.90;99.90
1359;DHT22;673;48.098;14.422;2024-02-23T12:03:29;6.90;99.90
1359;DHT22;673;48.098;14.422;2024-02-23T12:05:58;6.90;99.90
1359;DHT22;673;48.098;14.422;2024-02-23T12:08:25;6.80;99.90
1359;DHT22;673;48.098;14.422;2024-02-23T12:10:53;6.80;99.90
1359;DHT22;673;48.098;14.422;2024-02-23T12:13:20;6.80;99.90
1359;DHT22;673;48.098;14.422;2024-02-23T12:15:48;6.50;99.90
1359;DHT22;673;48.098;14.422;2024-02-23T12:18:15;6.60;99.90
1359;DHT22;673;48.098;14.422;2024-02-23T12:20:42;6.80;99.90
1359;DHT22;673;48.098;14.422;2024-02-23T12:23:11;6.90;99.90
1359;DHT22;673;48.098;14.422;2024-02-23T12:25:38;6.90;99.90
1359;DHT22;673;48.098;14.422;2024-02-23T12:28:06;7.00;99.90
1359;DHT22;673;48.098;14.422;2024-02-23T12:30:33;7.10;99.90
1359;DHT22;673;48.098;14.422;2024-02-23T12:33:04;7.20;99.90
1359;DHT22;673;48.098;14.422;2024-02-23T12:35:31;7.00;99.90
1359;DHT22;673;48.098;14.422;2024-02-23T12:37:58;6.90;99.90
1359;DHT22;673;48.098;14.422;2024-02-23T12:40:26;6.80;99.90
1359;DHT22;673;48.098;14.422;2024-02-23T12:42:53;6.80;99.90
1359;DHT22;673;48.098;14.422;2024-02-23T12:45:20;6.70;99.90
1359;DHT22;673;48.098;14.422;2024-02-23T12:47:47;6.60;99.90
1359;DHT22;673;48.098;14.422;2024-02-23T12:50:14;6.50;99.90
1359;DHT22;673;48.098;14.422;2024-02-23T12:52:42;6.50;99.90
1359;DHT22;673;48.098;14.422;2024-02-23T12:55:09;6.30;99.90
1359;DHT22;673;48.098;14.422;2024-02-23T12:57:37;6.10;99.90
1359;DHT22;673;48.098;14.422;2024-02-23T13:00:05;5.90;99.90
1359;DHT22;673;48.098;14.422;2024-02-23T13:02:34;5.90;99.90
1359;DHT22;673;48.098;14.422;2024-02-23T13:05:01;5.90;99.90
1359;DHT22;673;48.098;14.422;2024-02-23T13:07:28;5.90;99.90
1359;DHT22;673;48.098;14.422;2024-02-23T13:09:55;5.80;99.90
1359;DHT22;673;48.098;14.422;2024-02-23T13:12:22;5.80;99.90
1359;DHT22;673;48.098;14.422;2024-02-23T13:14:51;5.70;99.90
1359;DHT22;673;48.098;14.422;2024-02-23T13:17:18;5.70;99.90
1359;DHT22;673;48.098;14.422;2024-02-23T13:19:45;5.70;99.90
1359;DHT22;673;48.098;14.422;2024-02-23T13:22:12;5.70;99.90
1359;DHT22;673;48.098;14.422;2024-02-23T13:24:39;5.60;99.90
1359;DHT22;673;48.098;14.422;2024-02-23T13:27:06;5.50;99.90
1359;DHT22;673;48.098;14.422;2024-02-23T13:29:33;5.50;99.90
1359;DHT22;673;48.098;14.422;2024-02-23T13:32:02;5.50;99.90
1359;DHT22;673;48.098;14.422;2024-02-23T13:34:29;5.40;99.90
1359;DHT22;673;48.098;14.422;2024-02-23T13:36:56;5.40;99.90
1359;DHT22;673;48.098;14.422;2024-02-23T13:39:23;5.30;99.90
1359;DHT22;673;48.098;14.422;2024-02-23T13:41:50;5.30;99.90
1359;DHT22;673;48.098;14.422;2024-02-23T13:44:17;5.20;99.90
1359;DHT22;673;48.098;14.422;2024-02-23T13:46:44;5.00;99.90
1359;DHT22;673;48.098;14.422;2024-02-23T13:49:12;4.80;99.90
1359;DHT22;673;48.098;14.422;2024-02-23T13:51:39;4.80;99.90
1359;DHT22;673;48.098;14.422;2024-02-23T13:54:06;4.80;99.90
1359;DHT22;673;48.098;14.422;2024-02-23T13:56:35;4.70;99.90
1359;DHT22;673;48.098;14.422;2024-02-23T13:59:02;4.70;99.90
1359;DHT22;673;48.098;14.422;2024-02-23T14:01:29;4.70;99.90
1359;DHT22;673;48.098;14.422;2024-02-23T14:03:56;4.60;99.90
1359;DHT22;673;48.098;14.422;2024-02-23T14:06:24;4.70;99.90
1359;DHT22;673;48.098;14.422;2024-02-23T14:08:51;4.60;99.90
1359;DHT22;673;48.098;14.422;2024-02-23T14:11:18;4.70;99.90
1359;DHT22;673;48.098;14.422;2024-02-23T14:13:45;4.60;99.90
1359;DHT22;673;48.098;14.422;2024-02-23T14:16:12;4.50;99.90
1359;DHT22;673;48.098;14.422;2024-02-23T14:18:39;4.60;99.90
1359;DHT22;673;48.098;14.422;2024-02-23T14:21:08;4.60;99.90
1359;DHT22;673;48.098;14.422;2024-02-23T14:23:37;4.70;99.90
1359;DHT22;673;48.098;14.422;2024-02-23T14:26:04;4.70;99.90
1359;DHT22;673;48.098;14.422;2024-02-23T14:28:31;4.70;99.90
1359;DHT22;673;48.098;14.422;2024-02-23T14:30:58;4.60;99.90
1359;DHT22;673;48.098;14.422;2024-02-23T14:33:25;4.70;99.90
1359;DHT22;673;48.098;14.422;2024-02-23T14:35:52;4.60;99.90
1359;DHT22;673;48.098;14.422;2024-02-23T14:38:21;4.50;99.90
1359;DHT22;673;48.098;14.422;2024-02-23T14:40:50;4.40;99.90
1359;DHT22;673;48.098;14.422;2024-02-23T14:43:18;4.40;99.90
1359;DHT22;673;48.098;14.422;2024-02-23T14:45:45;4.40;99.90
1359;DHT22;673;48.098;14.422;2024-02-23T14:48:12;4.40;99.90
1359;DHT22;673;48.098;14.422;2024-02-23T14:50:39;4.30;99.90
1359;DHT22;673;48.098;14.422;2024-02-23T14:53:06;4.30;99.90
1359;DHT22;673;48.098;14.422;2024-02-23T14:55:34;4.30;99.90
1359;DHT22;673;48.098;14.422;2024-02-23T14:58:03;4.30;99.90
1359;DHT22;673;48.098;14.422;2024-02-23T15:00:30;4.30;99.90
1359;DHT22;673;48.098;14.422;2024-02-23T15:02:58;4.20;99.90
1359;DHT22;673;48.098;14.422;2024-02-23T15:05:25;4.20;99.90
1359;DHT22;673;48.098;14.422;2024-02-23T15:07:52;4.20;99.90
1359;DHT22;673;48.098;14.422;2024-02-23T15:10:19;4.20;99.90
1359;DHT22;673;48.098;14.422;2024-02-23T15:12:46;4.20;99.90
1359;DHT22;673;48.098;14.422;2024-02-23T15:15:15;4.10;99.90
1359;DHT22;673;48.098;14.422;2024-02-23T15:17:42;4.00;99.90
1359;DHT22;673;48.098;14.422;2024-02-23T15:20:11;4.10;99.90
1359;DHT22;673;48.098;14.422;2024-02-23T15:22:38;4.10;99.90
1359;DHT22;673;48.098;14.422;2024-02-23T15:25:08;4.00;99.90
1359;DHT22;673;48.098;14.422;2024-02-23T15:27:35;4.00;99.90
1359;DHT22;673;48.098;14.422;2024-02-23T15:30:03;3.90;99.90
1359;DHT22;673;48.098;14.422;2024-02-23T15:32:35;3.90;99.90
1359;DHT22;673;48.098;14.422;2024-02-23T15:35:03;3.90;99.90
1359;DHT22;673;48.098;14.422;2024-02-23T15:37:31;3.70;99.90
1359;DHT22;673;48.098;14.422;2024-02-23T15:39:58;3.70;99.90
1359;DHT22;673;48.098;14.422;2024-02-23T15:42:25;3.70;99.90
1359;DHT22;673;48.098;14.422;2024-02-23T15:44:52;3.70;99.90
1359;DHT22;673;48.098;14.422;2024-02-23T15:47:20;3.80;99.90
1359;DHT22;673;48.098;14.422;2024-02-23T15:49:48;3.80;99.90
1359;DHT22;673;48.098;14.422;2024-02-23T15:52:15;3.80;99.90
1359;DHT22;673;48.098;14.422;2024-02-23T15:54:42;3.80;99.90
1359;DHT22;673;48.098;14.422;2024-02-23T15:57:09;3.70;99.90
1359;DHT22;673;48.098;14.422;2024-02-23T15:59:36;3.60;99.90
1359;DHT22;673;48.098;14.422;2024-02-23T16:02:04;3.60;99.90
1359;DHT22;673;48.098;14.422;2024-02-23T16:04:32;3.50;99.90
1359;DHT22;673;48.098;14.422;2024-02-23T16:07:00;3.50;99.90
1359;DHT22;673;48.098;14.422;2024-02-23T16:09:27;3.50;99.90
1359;DHT22;673;48.098;14.422;2024-02-23T16:11:54;3.50;99.90
1359;DHT22;673;48.098;14.422;2024-02-23T16:14:21;3.40;99.90
1359;DHT22;673;48.098;14.422;2024-02-23T16:16:48;3.40;99.90
1359;DHT22;673;48.098;14.422;2024-02-23T16:19:16;3.30;99.90